createdAt,value
2018-10-19T00:01:00.714Z,12.00
2018-10-19T00:03:29.310Z,12.00
2018-10-19T00:05:57.925Z,11.90
2018-10-19T00:08:26.520Z,11.90
2018-10-19T00:10:55.241Z,11.90
2018-10-19T00:13:23.987Z,12.00
2018-10-19T00:15:52.757Z,11.90
2018-10-19T00:18:21.601Z,11.90
2018-10-19T00:20:50.454Z,11.90
2018-10-19T00:23:19.393Z,11.90
2018-10-19T00:25:48.126Z,11.90
2018-10-19T00:28:17.525Z,11.90
2018-10-19T00:30:46.228Z,11.90
2018-10-19T00:33:15.002Z,11.90
2018-10-19T00:35:43.698Z,11.80
2018-10-19T00:38:12.346Z,11.90
2018-10-19T00:40:47.907Z,11.80
2018-10-19T00:43:16.581Z,11.80
2018-10-19T00:45:45.265Z,11.80
2018-10-19T00:48:16.483Z,11.80
2018-10-19T00:50:45.291Z,11.80
2018-10-19T00:53:14.363Z,11.80
2018-10-19T00:55:43.077Z,11.90
2018-10-19T00:58:11.767Z,11.80
2018-10-19T01:00:42.151Z,11.80
2018-10-19T01:03:11.210Z,11.80
2018-10-19T01:05:40.867Z,11.80
2018-10-19T01:08:10.437Z,11.70
2018-10-19T01:10:39.316Z,11.80
2018-10-19T01:13:08.164Z,11.80
2018-10-19T01:15:36.838Z,11.80
2018-10-19T01:18:05.548Z,11.80
2018-10-19T01:20:34.179Z,11.70
2018-10-19T01:23:02.818Z,11.80
2018-10-19T01:25:31.398Z,11.70
2018-10-19T01:28:00.002Z,11.80
2018-10-19T01:30:28.660Z,11.80
2018-10-19T01:32:57.298Z,11.80
2018-10-19T01:35:25.999Z,11.70
2018-10-19T01:37:54.774Z,11.70
2018-10-19T01:40:23.555Z,11.70
2018-10-19T01:42:52.413Z,11.70
2018-10-19T01:45:21.294Z,11.70
2018-10-19T01:47:50.449Z,11.70
2018-10-19T01:50:19.463Z,11.70
2018-10-19T01:52:48.378Z,11.70
2018-10-19T01:55:17.091Z,11.70
2018-10-19T01:57:45.758Z,11.70
2018-10-19T02:00:14.397Z,11.70
2018-10-19T02:02:43.035Z,11.80
2018-10-19T02:05:11.827Z,11.70
2018-10-19T02:07:40.644Z,11.80
2018-10-19T02:10:09.410Z,11.80
2018-10-19T02:12:38.072Z,11.80
2018-10-19T02:15:08.023Z,11.80
2018-10-19T02:17:36.610Z,11.80
2018-10-19T02:20:05.318Z,11.90
2018-10-19T02:22:33.922Z,11.90
2018-10-19T02:25:02.523Z,12.00
2018-10-19T02:27:31.118Z,12.00
2018-10-19T02:29:59.763Z,12.00
2018-10-19T02:32:28.354Z,12.10
2018-10-19T02:34:56.955Z,12.10
2018-10-19T02:37:25.575Z,12.10
2018-10-19T02:39:54.394Z,12.10
2018-10-19T02:42:23.204Z,12.10
2018-10-19T02:44:52.090Z,12.10
2018-10-19T02:47:20.822Z,12.10
2018-10-19T02:49:49.802Z,12.10
2018-10-19T02:52:19.033Z,12.20
2018-10-19T02:54:47.876Z,12.20
2018-10-19T02:57:16.559Z,12.10
2018-10-19T02:59:45.163Z,12.10
2018-10-19T03:02:13.757Z,12.20
2018-10-19T03:04:42.465Z,12.20
2018-10-19T03:07:11.191Z,12.20
2018-10-19T03:09:40.052Z,12.20
2018-10-19T03:12:08.821Z,12.20
2018-10-19T03:14:37.490Z,12.20
2018-10-19T03:17:06.249Z,12.20
2018-10-19T03:19:34.942Z,12.20
2018-10-19T03:22:03.618Z,12.20
2018-10-19T03:24:32.309Z,12.20
2018-10-19T03:27:00.909Z,12.30
2018-10-19T03:29:29.747Z,12.30
2018-10-19T03:31:58.323Z,12.30
2018-10-19T03:34:27.043Z,12.30
2018-10-19T03:36:55.782Z,12.30
2018-10-19T03:39:24.742Z,12.30
2018-10-19T03:41:53.469Z,12.30
2018-10-19T03:44:22.402Z,12.30
2018-10-19T03:46:51.383Z,12.20
2018-10-19T03:49:20.528Z,12.30
2018-10-19T03:51:49.539Z,12.30
2018-10-19T03:54:19.114Z,12.30
2018-10-19T03:56:48.327Z,12.30
2018-10-19T03:59:17.173Z,12.30
2018-10-19T04:01:46.402Z,12.30
2018-10-19T04:04:15.077Z,12.30
2018-10-19T04:06:43.772Z,12.20
2018-10-19T04:09:13.668Z,12.20
2018-10-19T04:11:42.365Z,12.30
2018-10-19T04:14:12.249Z,12.30
2018-10-19T04:16:41.086Z,12.30
2018-10-19T04:19:10.564Z,12.20
2018-10-19T04:21:39.486Z,12.20
2018-10-19T04:24:08.196Z,12.30
2018-10-19T04:26:36.844Z,12.20
2018-10-19T04:29:05.839Z,12.30
2018-10-19T04:31:34.483Z,12.20
2018-10-19T04:34:03.066Z,12.30
2018-10-19T04:36:31.667Z,12.30
2018-10-19T04:39:00.316Z,12.30
2018-10-19T04:41:28.989Z,12.30
2018-10-19T04:43:57.503Z,12.30
2018-10-19T04:46:26.397Z,12.30
2018-10-19T04:48:55.296Z,12.30
2018-10-19T04:51:24.143Z,12.30
2018-10-19T04:53:53.085Z,12.30
2018-10-19T04:56:22.046Z,12.30
2018-10-19T04:58:50.858Z,12.30
2018-10-19T05:01:25.989Z,12.30
2018-10-19T05:03:54.857Z,12.40
2018-10-19T05:06:23.679Z,12.30
2018-10-19T05:08:52.472Z,12.30
2018-10-19T05:11:21.442Z,12.30
2018-10-19T05:13:50.378Z,12.40
2018-10-19T05:16:19.331Z,12.40
2018-10-19T05:18:48.221Z,12.40
2018-10-19T05:21:17.598Z,12.30
2018-10-19T05:23:46.244Z,12.30
2018-10-19T05:26:14.921Z,12.40
2018-10-19T05:28:43.459Z,12.40
2018-10-19T05:31:12.137Z,12.40
2018-10-19T05:33:40.871Z,12.30
2018-10-19T05:36:09.665Z,12.40
2018-10-19T05:38:38.365Z,12.30
2018-10-19T05:41:07.100Z,12.30
2018-10-19T05:43:35.784Z,12.30
2018-10-19T05:46:04.357Z,12.30
2018-10-19T05:48:32.934Z,12.30
2018-10-19T05:51:01.566Z,12.30
2018-10-19T05:53:30.209Z,12.30
2018-10-19T05:55:58.872Z,12.30
2018-10-19T05:58:27.459Z,12.30
2018-10-19T06:00:56.266Z,12.30
2018-10-19T06:03:24.935Z,12.30
2018-10-19T06:05:53.842Z,12.30
2018-10-19T06:08:22.738Z,12.30
2018-10-19T06:10:51.673Z,12.30
2018-10-19T06:13:20.588Z,12.30
2018-10-19T06:15:49.573Z,12.40
2018-10-19T06:18:19.101Z,12.40
2018-10-19T06:20:47.972Z,12.30
2018-10-19T06:23:16.778Z,12.30
2018-10-19T06:25:45.448Z,12.40
2018-10-19T06:28:14.046Z,12.40
2018-10-19T06:30:42.686Z,12.40
2018-10-19T06:33:11.366Z,12.40
2018-10-19T06:35:40.219Z,12.40
2018-10-19T06:38:08.996Z,12.40
2018-10-19T06:40:38.048Z,12.50
2018-10-19T06:43:06.702Z,12.50
2018-10-19T06:45:35.373Z,12.50
2018-10-19T06:48:04.064Z,12.50
2018-10-19T06:50:32.686Z,12.50
2018-10-19T06:53:01.325Z,12.50
2018-10-19T06:55:29.903Z,12.50
2018-10-19T06:57:58.525Z,12.60
2018-10-19T07:00:27.226Z,12.60
2018-10-19T07:02:55.846Z,12.60
2018-10-19T07:05:24.774Z,12.60
2018-10-19T07:07:53.638Z,12.70
2018-10-19T07:10:22.483Z,12.70
2018-10-19T07:12:51.380Z,12.70
2018-10-19T07:15:20.286Z,12.70
2018-10-19T07:17:49.402Z,12.70
2018-10-19T07:20:18.527Z,12.80
2018-10-19T07:22:47.293Z,12.80
2018-10-19T07:25:15.916Z,12.80
2018-10-19T07:27:44.592Z,12.80
2018-10-19T07:30:13.223Z,12.80
2018-10-19T07:32:41.927Z,12.80
2018-10-19T07:35:10.731Z,12.90
2018-10-19T07:37:39.563Z,12.90
2018-10-19T07:40:08.354Z,13.00
2018-10-19T07:42:37.173Z,13.00
2018-10-19T07:45:06.576Z,12.90
2018-10-19T07:47:35.232Z,13.00
2018-10-19T07:50:04.025Z,13.00
2018-10-19T07:52:32.591Z,13.00
2018-10-19T07:55:01.220Z,13.10
2018-10-19T07:57:29.811Z,13.20
2018-10-19T07:59:58.423Z,13.20
2018-10-19T08:02:26.987Z,13.20
2018-10-19T08:04:55.638Z,13.30
2018-10-19T08:07:24.485Z,13.30
2018-10-19T08:09:53.310Z,13.40
2018-10-19T08:12:22.189Z,13.50
2018-10-19T08:14:51.096Z,13.60
2018-10-19T08:17:19.967Z,13.70
2018-10-19T08:19:48.905Z,13.70
2018-10-19T08:22:17.820Z,13.80
2018-10-19T08:24:46.472Z,13.90
2018-10-19T08:27:15.112Z,14.00
2018-10-19T08:29:43.685Z,14.00
2018-10-19T08:32:12.384Z,14.10
2018-10-19T08:34:41.170Z,14.20
2018-10-19T08:37:09.943Z,14.30
2018-10-19T08:39:38.688Z,14.40
2018-10-19T08:42:07.384Z,14.40
2018-10-19T08:44:35.972Z,14.50
2018-10-19T08:47:04.652Z,14.70
2018-10-19T08:49:33.181Z,14.60
2018-10-19T08:52:01.987Z,14.60
2018-10-19T08:54:30.584Z,14.60
2018-10-19T08:56:59.263Z,14.70
2018-10-19T08:59:27.873Z,14.80
2018-10-19T09:01:56.464Z,14.80
2018-10-19T09:04:25.248Z,15.00
2018-10-19T09:06:54.146Z,15.20
2018-10-19T09:09:22.973Z,15.20
2018-10-19T09:11:51.847Z,15.40
2018-10-19T09:14:31.658Z,15.50
2018-10-19T09:17:00.801Z,15.70
2018-10-19T09:19:29.502Z,15.70
2018-10-19T09:21:58.107Z,15.90
2018-10-19T09:24:26.689Z,15.80
2018-10-19T09:26:55.512Z,15.70
2018-10-19T09:29:24.490Z,15.70
2018-10-19T09:31:53.426Z,15.70
2018-10-19T09:34:22.278Z,15.70
2018-10-19T09:36:51.626Z,15.60
2018-10-19T09:39:20.300Z,15.60
2018-10-19T09:41:49.463Z,15.50
2018-10-19T09:44:18.351Z,15.50
2018-10-19T09:46:47.205Z,15.60
2018-10-19T09:49:15.903Z,15.70
2018-10-19T09:51:44.584Z,15.90
2018-10-19T09:54:13.239Z,16.00
2018-10-19T09:56:41.981Z,16.10
2018-10-19T09:59:11.003Z,16.30
2018-10-19T10:01:40.638Z,16.20
2018-10-19T10:04:09.563Z,16.10
2018-10-19T10:06:38.311Z,16.10
2018-10-19T10:09:11.089Z,16.10
2018-10-19T10:11:39.914Z,15.90
2018-10-19T10:14:08.887Z,15.90
2018-10-19T10:16:37.691Z,15.90
2018-10-19T10:19:07.135Z,15.80
2018-10-19T10:21:35.822Z,15.80
2018-10-19T10:24:04.646Z,15.80
2018-10-19T10:26:33.259Z,15.80
2018-10-19T10:29:01.871Z,15.80
2018-10-19T10:31:30.486Z,15.80
2018-10-19T10:33:59.099Z,15.90
2018-10-19T10:36:27.691Z,15.90
2018-10-19T10:38:56.477Z,15.80
2018-10-19T10:41:25.083Z,16.00
2018-10-19T10:43:53.948Z,15.90
2018-10-19T10:46:22.944Z,15.90
2018-10-19T10:48:52.033Z,15.90
2018-10-19T10:51:20.836Z,15.90
2018-10-19T10:53:49.840Z,15.90
2018-10-19T10:56:19.137Z,15.90
2018-10-19T10:58:48.081Z,15.90
2018-10-19T11:01:16.895Z,16.00
2018-10-19T11:03:45.539Z,16.10
2018-10-19T11:06:14.122Z,16.10
2018-10-19T11:08:42.751Z,16.10
2018-10-19T11:11:13.009Z,16.10
2018-10-19T11:13:42.502Z,16.10
2018-10-19T11:16:12.274Z,16.10
2018-10-19T11:18:41.343Z,16.20
2018-10-19T11:21:10.201Z,16.30
2018-10-19T11:23:39.071Z,16.30
2018-10-19T11:26:07.762Z,16.40
2018-10-19T11:28:36.390Z,16.40
2018-10-19T11:31:05.547Z,16.50
2018-10-19T11:33:34.114Z,16.50
2018-10-19T11:36:02.739Z,16.70
2018-10-19T11:38:31.394Z,16.60
2018-10-19T11:40:59.994Z,16.80
2018-10-19T11:43:28.574Z,16.90
2018-10-19T11:45:57.238Z,16.90
2018-10-19T11:48:25.820Z,16.90
2018-10-19T11:50:54.687Z,16.90
2018-10-19T11:53:24.635Z,16.90
2018-10-19T11:55:53.421Z,16.90
2018-10-19T11:58:22.193Z,16.90
2018-10-19T12:00:51.234Z,16.90
2018-10-19T12:03:20.375Z,16.80
2018-10-19T12:05:49.412Z,16.80
2018-10-19T12:08:18.345Z,16.70
2018-10-19T12:10:47.169Z,16.60
2018-10-19T12:13:15.816Z,16.60
2018-10-19T12:15:44.358Z,16.50
2018-10-19T12:18:13.022Z,16.50
2018-10-19T12:20:41.695Z,16.50
2018-10-19T12:23:10.457Z,16.40
2018-10-19T12:25:39.149Z,16.40
2018-10-19T12:28:07.925Z,16.40
2018-10-19T12:30:36.494Z,16.40
2018-10-19T12:33:05.258Z,16.50
2018-10-19T12:35:33.861Z,16.60
2018-10-19T12:38:02.475Z,16.80
2018-10-19T12:40:31.067Z,17.00
2018-10-19T12:42:59.695Z,17.00
2018-10-19T12:46:38.393Z,17.10
2018-10-19T12:49:07.225Z,17.20
2018-10-19T12:51:36.083Z,17.20
2018-10-19T12:54:04.923Z,17.10
2018-10-19T12:56:33.453Z,17.30
2018-10-19T12:59:02.044Z,17.30
2018-10-19T13:01:31.247Z,17.30
2018-10-19T13:04:00.430Z,17.30
2018-10-19T13:06:29.074Z,17.30
2018-10-19T13:08:57.729Z,17.30
2018-10-19T13:11:26.769Z,17.30
2018-10-19T13:13:55.668Z,17.40
2018-10-19T13:16:24.743Z,17.40
2018-10-19T13:18:53.771Z,17.40
2018-10-19T13:21:22.592Z,17.40
2018-10-19T13:23:51.418Z,17.40
2018-10-19T13:26:20.579Z,17.50
2018-10-19T13:28:49.490Z,17.40
2018-10-19T13:31:18.481Z,17.40
2018-10-19T13:33:47.163Z,17.40
2018-10-19T13:36:15.896Z,17.50
2018-10-19T13:38:44.451Z,17.50
2018-10-19T13:41:13.071Z,17.50
2018-10-19T13:43:42.470Z,17.40
2018-10-19T13:46:11.164Z,17.30
2018-10-19T13:48:40.066Z,17.20
2018-10-19T13:51:08.834Z,17.20
2018-10-19T13:53:37.441Z,17.10
2018-10-19T13:56:06.055Z,17.10
2018-10-19T13:58:34.692Z,17.00
2018-10-19T14:01:03.334Z,17.00
2018-10-19T14:03:31.922Z,16.90
2018-10-19T14:06:00.553Z,16.90
2018-10-19T14:08:29.138Z,16.90
2018-10-19T14:10:57.796Z,16.90
2018-10-19T14:13:26.438Z,16.90
2018-10-19T14:15:55.233Z,17.00
2018-10-19T14:18:24.005Z,17.00
2018-10-19T14:20:52.947Z,17.10
2018-10-19T14:23:21.924Z,17.10
2018-10-19T14:25:50.981Z,17.20
2018-10-19T14:28:19.777Z,17.20
2018-10-19T14:30:48.684Z,17.40
2018-10-19T14:33:17.606Z,17.40
2018-10-19T14:35:46.820Z,17.40
2018-10-19T14:38:15.443Z,17.50
2018-10-19T14:40:44.111Z,17.50
2018-10-19T14:43:12.754Z,17.50
2018-10-19T14:45:41.476Z,17.50
2018-10-19T14:48:10.221Z,17.60
2018-10-19T14:50:38.985Z,17.50
2018-10-19T14:53:07.704Z,17.40
2018-10-19T14:55:36.389Z,17.40
2018-10-19T14:58:05.231Z,17.30
2018-10-19T15:00:33.864Z,17.30
2018-10-19T15:03:02.452Z,17.30
2018-10-19T15:05:31.094Z,17.30
2018-10-19T15:07:59.797Z,17.30
2018-10-19T15:10:28.889Z,17.30
2018-10-19T15:12:57.516Z,17.20
2018-10-19T15:15:26.412Z,17.10
2018-10-19T15:17:55.083Z,17.00
2018-10-19T15:20:23.972Z,16.90
2018-10-19T15:22:52.861Z,16.80
2018-10-19T15:25:21.794Z,16.70
2018-10-19T15:27:50.752Z,16.70
2018-10-19T15:30:20.453Z,16.60
2018-10-19T15:32:49.443Z,16.50
2018-10-19T15:35:18.370Z,16.40
2018-10-19T15:37:47.141Z,16.30
2018-10-19T15:40:15.785Z,16.30
2018-10-19T15:42:44.375Z,16.20
2018-10-19T15:45:13.500Z,16.10
2018-10-19T15:47:42.298Z,16.10
2018-10-19T15:50:11.170Z,16.00
2018-10-19T15:52:39.921Z,16.00
2018-10-19T15:55:08.812Z,15.90
2018-10-19T15:57:37.549Z,15.80
2018-10-19T16:00:08.227Z,15.80
2018-10-19T16:02:36.943Z,15.80
2018-10-19T16:05:06.585Z,15.70
2018-10-19T16:07:35.226Z,15.70
2018-10-19T16:10:04.063Z,15.70
2018-10-19T16:12:32.714Z,15.70
2018-10-19T16:15:01.358Z,15.70
2018-10-19T16:17:29.948Z,15.60
2018-10-19T16:19:58.565Z,15.60
2018-10-19T16:22:27.207Z,15.50
2018-10-19T16:24:55.894Z,15.40
2018-10-19T16:27:24.768Z,15.40
2018-10-19T16:29:53.452Z,15.30
2018-10-19T16:32:22.436Z,15.30
2018-10-19T16:34:51.403Z,15.20
2018-10-19T16:37:20.341Z,15.20
2018-10-19T16:39:49.221Z,15.20
2018-10-19T16:42:18.225Z,15.10
2018-10-19T16:44:47.173Z,15.10
2018-10-19T16:47:15.831Z,15.10
2018-10-19T16:49:44.439Z,15.10
2018-10-19T16:52:13.198Z,15.00
2018-10-19T16:54:41.787Z,15.00
2018-10-19T16:57:10.679Z,14.90
2018-10-19T16:59:39.491Z,14.90
2018-10-19T17:02:08.327Z,14.90
2018-10-19T17:04:36.975Z,14.90
2018-10-19T17:07:05.995Z,14.90
2018-10-19T17:09:34.574Z,14.80
2018-10-19T17:12:03.250Z,14.70
2018-10-19T17:14:31.846Z,14.70
2018-10-19T17:17:00.425Z,14.70
2018-10-19T17:19:35.303Z,14.60
2018-10-19T17:22:03.895Z,14.60
2018-10-19T17:24:32.503Z,14.50
2018-10-19T17:27:01.126Z,14.50
2018-10-19T17:29:29.783Z,14.50
2018-10-19T17:31:58.577Z,14.40
2018-10-19T17:34:27.178Z,14.40
2018-10-19T17:36:55.984Z,14.30
2018-10-19T17:39:24.757Z,14.30
2018-10-19T17:41:53.592Z,14.30
2018-10-19T17:44:22.499Z,14.30
2018-10-19T17:46:51.382Z,14.20
2018-10-19T17:49:20.274Z,14.20
2018-10-19T17:51:49.275Z,14.10
2018-10-19T17:54:18.287Z,14.10
2018-10-19T17:56:47.063Z,14.10
2018-10-19T17:59:15.863Z,14.00
2018-10-19T18:01:44.326Z,14.00
2018-10-19T18:04:12.953Z,13.90
2018-10-19T18:06:41.581Z,13.90
2018-10-19T18:09:11.347Z,13.90
2018-10-19T18:11:40.423Z,13.70
2018-10-19T18:14:09.371Z,13.70
2018-10-19T18:16:38.121Z,13.70
2018-10-19T18:19:06.748Z,13.70
2018-10-19T18:21:35.416Z,13.70
2018-10-19T18:24:04.050Z,13.70
2018-10-19T18:26:32.666Z,13.70
2018-10-19T18:29:01.321Z,13.60
2018-10-19T18:31:30.025Z,13.60
2018-10-19T18:33:58.606Z,13.60
2018-10-19T18:36:27.192Z,13.60
2018-10-19T18:38:55.974Z,13.60
2018-10-19T18:41:24.861Z,13.60
2018-10-19T18:43:53.644Z,13.50
2018-10-19T18:46:22.679Z,13.40
2018-10-19T18:48:51.669Z,13.40
2018-10-19T18:51:20.684Z,13.30
2018-10-19T18:53:49.506Z,13.30
2018-10-19T18:56:18.763Z,13.30
2018-10-19T18:58:47.502Z,13.20
2018-10-19T19:01:16.161Z,13.20
2018-10-19T19:03:44.783Z,13.20
2018-10-19T19:06:13.368Z,13.20
2018-10-19T19:08:41.998Z,13.20
2018-10-19T19:11:10.776Z,13.20
2018-10-19T19:13:45.558Z,13.20
2018-10-19T19:16:30.065Z,13.10
2018-10-19T19:18:58.699Z,13.20
2018-10-19T19:21:27.400Z,13.10
2018-10-19T19:24:01.244Z,13.20
2018-10-19T19:26:29.865Z,13.20
2018-10-19T19:28:58.795Z,13.20
2018-10-19T19:31:27.401Z,13.20
2018-10-19T19:34:01.436Z,13.10
2018-10-19T19:36:30.160Z,13.10
2018-10-19T19:38:58.783Z,13.10
2018-10-19T19:41:32.619Z,13.10
2018-10-19T19:44:01.239Z,13.10
2018-10-19T19:46:29.841Z,13.20
2018-10-19T19:49:03.817Z,13.10
2018-10-19T19:51:32.404Z,13.10
2018-10-19T19:54:01.025Z,13.10
2018-10-19T19:56:29.595Z,13.10
2018-10-19T19:58:58.218Z,13.00
2018-10-19T20:01:26.855Z,13.00
2018-10-19T20:03:55.651Z,12.80
2018-10-19T20:06:24.632Z,12.70
2018-10-19T20:08:53.377Z,12.60
2018-10-19T20:11:22.166Z,12.50
2018-10-19T20:13:51.204Z,12.40
2018-10-19T20:16:20.151Z,12.30
2018-10-19T20:18:49.177Z,12.20
2018-10-19T20:21:18.717Z,12.10
2018-10-19T20:23:47.648Z,12.10
2018-10-19T20:26:17.151Z,11.90
2018-10-19T20:28:45.759Z,11.90
2018-10-19T20:31:14.333Z,11.90
2018-10-19T20:33:42.967Z,11.80
2018-10-19T20:36:11.730Z,11.70
2018-10-19T20:38:40.630Z,11.60
2018-10-19T20:41:09.313Z,11.60
2018-10-19T20:43:38.075Z,11.50
2018-10-19T20:46:06.796Z,11.50
2018-10-19T20:48:35.381Z,11.40
2018-10-19T20:51:04.009Z,11.30
2018-10-19T20:53:32.589Z,11.20
2018-10-19T20:56:01.238Z,11.20
2018-10-19T20:58:29.791Z,11.20
2018-10-19T21:00:58.422Z,11.20
2018-10-19T21:03:27.034Z,11.10
2018-10-19T21:05:55.675Z,11.00
2018-10-19T21:08:24.346Z,11.00
2018-10-19T21:10:53.129Z,11.00
2018-10-19T21:13:22.075Z,11.00
2018-10-19T21:15:50.992Z,11.00
2018-10-19T21:18:19.910Z,11.00
2018-10-19T21:20:49.243Z,10.90
2018-10-19T21:23:18.267Z,10.90
2018-10-19T21:25:47.008Z,10.80
2018-10-19T21:28:15.640Z,10.80
2018-10-19T21:30:44.234Z,10.70
2018-10-19T21:33:19.613Z,10.70
2018-10-19T21:35:48.469Z,10.70
2018-10-19T21:38:17.374Z,10.70
2018-10-19T21:40:46.040Z,10.70
2018-10-19T21:43:14.639Z,10.60
2018-10-19T21:45:43.202Z,10.60
2018-10-19T21:48:11.915Z,10.60
2018-10-19T21:50:40.771Z,10.60
2018-10-19T21:53:09.702Z,10.50
2018-10-19T21:55:38.339Z,10.50
2018-10-19T21:58:07.016Z,10.50
2018-10-19T22:00:35.711Z,10.40
2018-10-19T22:03:04.435Z,10.40
2018-10-19T22:05:33.072Z,10.40
2018-10-19T22:08:01.687Z,10.40
2018-10-19T22:10:30.287Z,10.30
2018-10-19T22:12:58.897Z,10.30
2018-10-19T22:15:27.487Z,10.30
2018-10-19T22:17:56.285Z,10.20
2018-10-19T22:20:25.066Z,10.20
2018-10-19T22:22:54.148Z,10.20
2018-10-19T22:25:22.884Z,10.20
2018-10-19T22:27:51.784Z,10.20
2018-10-19T22:30:20.837Z,10.10
2018-10-19T22:32:49.765Z,10.00
2018-10-19T22:35:18.553Z,10.00
2018-10-19T22:37:47.385Z,10.00
2018-10-19T22:40:16.146Z,10.10
2018-10-19T22:42:44.815Z,10.00
2018-10-19T22:45:13.394Z,10.00
2018-10-19T22:47:42.129Z,9.90
2018-10-19T22:50:10.913Z,9.90
2018-10-19T22:52:39.779Z,9.90
2018-10-19T22:55:08.612Z,9.90
2018-10-19T22:57:37.270Z,9.90
2018-10-19T23:00:06.965Z,9.90
2018-10-19T23:02:35.600Z,9.90
2018-10-19T23:05:04.618Z,9.90
2018-10-19T23:07:33.855Z,9.80
2018-10-19T23:10:02.467Z,9.80
2018-10-19T23:12:31.082Z,9.80
2018-10-19T23:14:59.655Z,9.80
2018-10-19T23:17:28.266Z,9.70
2018-10-19T23:19:56.883Z,9.70
2018-10-19T23:22:25.573Z,9.70
2018-10-19T23:24:54.375Z,9.60
2018-10-19T23:27:23.217Z,9.60
2018-10-19T23:29:51.992Z,9.50
2018-10-19T23:32:20.948Z,9.50
2018-10-19T23:34:49.786Z,9.50
2018-10-19T23:37:18.483Z,9.40
2018-10-19T23:39:47.176Z,9.40
2018-10-19T23:42:15.793Z,9.30
2018-10-19T23:44:44.414Z,9.30
2018-10-19T23:47:13.091Z,9.20
2018-10-19T23:49:41.776Z,9.30
2018-10-19T23:52:10.706Z,9.20
2018-10-19T23:54:39.489Z,9.30
2018-10-19T23:57:08.258Z,9.30
2018-10-19T23:59:36.883Z,9.30
